Strona główna
METAR-TAF:

METAR-TAF

Lotnisko :

Williamsport, Pensylwania, Stany Zjednoczone

Szerokość geograficzna: 41-14-30N, Długość geograficzna: 076-55-15W, wysokość: 161 m

Aktualna obserwacja pogody

Raport powstał 1 godzina i 1 minut temu, godzina 23:54 UTC
Wiatr 7 kt od południowo-południowy wschód
Temperatura 18°C
Wilgotność 45%
Ciśnienie 1014 hPa
Widzialność: 16.1 km
Przerywane chmury na wysokości 8500 ft
Zachmurzenie całkowite na wysokości 11000 ft

METAR: KIPT 052354Z 16007KT 10SM BKN085 OVC110 18/06 A2994 RMK AO2 SLP138 T01780061 10211 20167 56002

czas: 20:55 (00:55 UTC)

Prognoza

Raport powstał 1 godzina i 19 minut temu, godzina 23:36 UTC
Prognoza ważna od 06 godzina 00 UTC do 06 godzina 24 UTC
Wiatr 7 kt od zachód
Widzialność: 10 km
Rozproszone chmury na wysokości 4000 ft
Przerywane chmury na wysokości 9000 ft
Od 06 godzina 0500 UTC
Wiatr 4 kt od północno-północny zachód
Widzialność: 10 km
Rozproszone chmury na wysokości 4000 ft

TAF: KIPT 052336Z 0600/0624 28007KT P6SM SCT040 BKN090 FM060500 34004KT P6SM SCT040

Obserwacja i prognoza pogody dla ponad 4000 lotnisk (raport METAR i TAF).

Dostępne stacje oznaczono żółtymi i czerwonymi punktami na mapie.

Najedź kursorem aby zobaczyć nazwę stacji.

Kliknij aby zobaczyć obserwacje i prognozy pogody.

Aby zmienić mapę: kliknij na zielony przycisk z czarnym krzyżykiem, aby powiększyć; na zielony przycisk z myślnikiem, aby pomniejszyć; na zielone strzałki, aby przejść do map sąsiednich.


METAR-TAF: